Time;durP1;ratioP1;P1;durP2;ratioP2;P2;SDS_P1;SDS_P2;PMS_P1;PMS_P2;Temp;Humidity;BMP_temperature;BMP_pressure;BME280_temperature;BME280_humidity;BME280_pressure;Samples;Min_cycle;Max_cycle;Signal;HPM_P1;HPM_P2
2022/06/26 00:01:28;;;;;;;40.30;22.20;;;;;;;16.32;100.00;101042.91;6220689;23;20102;-88
2022/06/26 00:04:16;;;;;;;31.27;20.88;;;;;;;16.20;100.00;101039.44;6219718;23;20008;-89
2022/06/26 00:06:44;;;;;;;36.40;20.07;;;;;;;16.12;100.00;101035.19;6195048;23;20008;-88
2022/06/26 00:09:17;;;;;;;36.25;20.33;;;;;;;16.08;100.00;101031.31;6219389;23;20004;-89
2022/06/26 00:11:42;;;;;;;32.70;20.90;;;;;;;16.09;100.00;101042.00;6220469;23;20012;-88
2022/06/26 00:14:17;;;;;;;30.40;19.83;;;;;;;16.06;100.00;101047.97;6247036;23;20008;-88
2022/06/26 00:16:44;;;;;;;32.80;19.85;;;;;;;16.08;100.00;101043.06;6219020;23;20004;-88
2022/06/26 00:19:21;;;;;;;37.55;20.15;;;;;;;16.04;100.00;101046.56;6219208;23;20011;-88
2022/06/26 00:21:54;;;;;;;36.35;20.83;;;;;;;15.98;100.00;101051.09;6245744;23;20004;-88
2022/06/26 00:24:22;;;;;;;33.25;20.05;;;;;;;15.95;100.00;101051.59;6245901;23;20000;-88
2022/06/26 00:26:48;;;;;;;39.50;21.03;;;;;;;15.93;100.00;101051.03;6194244;23;20107;-88
2022/06/26 00:29:22;;;;;;;35.83;21.17;;;;;;;15.87;100.00;101058.31;6220004;23;20043;-87
2022/06/26 00:31:50;;;;;;;38.47;21.17;;;;;;;15.87;100.00;101052.84;6194442;23;20402;-88
2022/06/26 00:34:15;;;;;;;33.58;21.10;;;;;;;15.79;100.00;101064.97;6196363;23;20016;-88
2022/06/26 00:36:41;;;;;;;40.88;21.05;;;;;;;15.76;100.00;101072.84;6221200;23;20008;-88
2022/06/26 00:39:07;;;;;;;33.60;20.10;;;;;;;15.72;100.00;101077.97;6221349;23;20015;-88
2022/06/26 00:41:34;;;;;;;39.30;22.17;;;;;;;15.67;100.00;101074.31;6196109;23;20008;-88
2022/06/26 00:44:11;;;;;;;38.40;21.67;;;;;;;15.62;100.00;101083.25;6220814;23;20449;-88
2022/06/26 00:46:37;;;;;;;37.88;21.98;;;;;;;15.52;100.00;101080.31;6219969;23;20021;-88
2022/06/26 00:49:02;;;;;;;41.00;22.37;;;;;;;15.49;100.00;101078.06;6247556;23;20050;-88
2022/06/26 00:51:36;;;;;;;41.50;22.43;;;;;;;15.49;100.00;101091.72;6195932;23;20008;-88
2022/06/26 00:54:02;;;;;;;40.75;22.40;;;;;;;15.46;100.00;101095.78;6221322;23;20015;-88
2022/06/26 00:56:36;;;;;;;46.22;24.52;;;;;;;15.46;100.00;101098.50;6220912;23;20011;-88
2022/06/26 00:59:02;;;;;;;45.10;24.77;;;;;;;15.44;100.00;101098.75;6221132;23;20411;-89
2022/06/26 01:01:35;;;;;;;46.08;22.38;;;;;;;15.39;100.00;101101.38;6247444;23;20012;-88
2022/06/26 01:04:01;;;;;;;48.57;24.00;;;;;;;15.40;100.00;101096.75;6221070;23;20433;-88
2022/06/26 01:06:30;;;;;;;49.25;24.95;;;;;;;15.41;100.00;101091.03;6247430;23;20322;-88
2022/06/26 01:08:59;;;;;;;48.85;24.75;;;;;;;15.42;100.00;101095.41;6221172;23;20004;-88
2022/06/26 01:11:25;;;;;;;48.67;24.35;;;;;;;15.41;100.00;101098.38;6220425;23;20000;-88
2022/06/26 01:13:55;;;;;;;48.70;25.25;;;;;;;15.40;100.00;101099.47;6220395;23;20082;-88
2022/06/26 01:16:22;;;;;;;52.43;25.43;;;;;;;15.41;100.00;101103.84;6220683;23;20008;-88
2022/06/26 01:18:51;;;;;;;48.95;24.55;;;;;;;15.41;100.00;101104.69;6220366;23;20032;-88
2022/06/26 01:21:18;;;;;;;49.58;25.05;;;;;;;15.40;100.00;101113.16;6220328;23;20016;-88
2022/06/26 01:23:47;;;;;;;52.28;25.52;;;;;;;15.40;100.00;101110.41;6220465;23;20066;-88
2022/06/26 01:26:16;;;;;;;52.15;25.27;;;;;;;15.38;100.00;101110.66;6221799;23;20011;-88
2022/06/26 01:28:42;;;;;;;49.30;25.53;;;;;;;15.40;100.00;101110.41;6247613;23;20011;-88
2022/06/26 01:31:07;;;;;;;52.25;25.30;;;;;;;15.38;100.00;101116.13;6220834;23;20004;-88
2022/06/26 01:33:35;;;;;;;55.30;27.87;;;;;;;15.34;100.00;101119.56;6221280;23;20012;-88
2022/06/26 01:36:01;;;;;;;55.00;27.38;;;;;;;15.29;100.00;101123.00;6247394;23;20004;-88
2022/06/26 01:38:26;;;;;;;55.43;27.80;;;;;;;15.30;100.00;101119.22;6220803;23;20385;-88
2022/06/26 01:40:56;;;;;;;58.30;27.10;;;;;;;15.27;100.00;101116.97;6220471;23;20319;-88
2022/06/26 01:43:26;;;;;;;58.20;28.05;;;;;;;15.27;100.00;101127.91;6220211;23;20054;-88
2022/06/26 01:45:54;;;;;;;59.17;28.65;;;;;;;15.25;100.00;101124.56;6220760;23;20036;-88
2022/06/26 01:48:28;;;;;;;58.95;29.08;;;;;;;15.22;100.00;101117.69;6221016;23;20020;-88
2022/06/26 01:50:59;;;;;;;61.60;29.10;;;;;;;15.22;100.00;101114.97;6221273;23;20020;-88
2022/06/26 01:53:27;;;;;;;56.00;28.07;;;;;;;15.22;100.00;101123.16;6220011;23;20015;-88
2022/06/26 01:55:56;;;;;;;63.88;29.85;;;;;;;15.20;100.00;101108.06;6246881;23;20066;-88
2022/06/26 01:58:27;;;;;;;59.67;29.00;;;;;;;15.18;100.00;101102.03;6220085;23;20004;-88
2022/06/26 02:00:53;;;;;;;57.08;28.70;;;;;;;15.13;100.00;101112.81;6220608;23;20000;-88
2022/06/26 02:03:23;;;;;;;58.10;28.17;;;;;;;15.12;100.00;101108.41;6247416;23;20007;-88
2022/06/26 02:05:50;;;;;;;60.97;29.23;;;;;;;15.13;100.00;101101.88;6220250;23;20023;-88
2022/06/26 02:08:16;;;;;;;64.25;29.45;;;;;;;15.11;100.00;101104.88;6219763;23;20039;-88
2022/06/26 02:13:41;;;;;;;57.97;28.38;;;;;;;15.12;100.00;101102.94;6247579;23;20054;-88
2022/06/26 02:16:19;;;;;;;61.22;28.30;;;;;;;15.13;100.00;101093.69;6220409;23;20015;-87
2022/06/26 02:18:49;;;;;;;61.30;27.27;;;;;;;15.09;100.00;101093.34;6219777;23;20011;-87
2022/06/26 02:21:17;;;;;;;60.75;27.08;;;;;;;15.05;100.00;101087.53;6220711;23;20012;-88
2022/06/26 02:23:47;;;;;;;59.92;28.05;;;;;;;15.02;100.00;101090.72;6220435;23;20008;-87
2022/06/26 02:26:13;;;;;;;56.85;26.75;;;;;;;14.95;100.00;101090.03;6247315;23;20024;-88
2022/06/26 02:28:42;;;;;;;50.40;25.90;;;;;;;14.86;100.00;101094.19;6219075;23;20013;-88
2022/06/26 02:31:08;;;;;;;53.20;25.83;;;;;;;14.78;100.00;101094.53;6219908;23;20008;-88
2022/06/26 02:33:34;;;;;;;49.55;24.40;;;;;;;14.71;100.00;101098.22;6219965;23;20019;-88
2022/06/26 02:36:01;;;;;;;51.83;23.80;;;;;;;14.64;100.00;101113.88;6246527;23;20008;-88
2022/06/26 02:38:27;;;;;;;43.85;21.73;;;;;;;14.54;100.00;101109.00;6219762;23;20007;-88
2022/06/26 02:41:01;;;;;;;41.00;20.48;;;;;;;14.45;100.00;101112.28;6194432;23;20016;-88
2022/06/26 02:43:29;;;;;;;42.47;19.93;;;;;;;14.37;100.00;101116.19;6219592;23;20015;-88
2022/06/26 02:45:55;;;;;;;44.63;21.48;;;;;;;14.32;100.00;101116.06;6219436;23;20430;-88
2022/06/26 02:48:21;;;;;;;42.17;19.75;;;;;;;14.27;100.00;101114.03;6219286;23;20066;-88
2022/06/26 02:50:50;;;;;;;46.40;20.27;;;;;;;14.22;100.00;101113.91;6220829;23;20012;-88
2022/06/26 02:53:18;;;;;;;46.10;20.00;;;;;;;14.17;100.00;101133.72;6219600;23;20011;-88
2022/06/26 02:55:44;;;;;;;49.63;22.42;;;;;;;14.13;100.00;101128.94;6219449;23;20005;-88
2022/06/26 02:58:09;;;;;;;41.53;20.85;;;;;;;14.10;100.00;101132.13;6219086;23;20011;-88
2022/06/26 03:00:35;;;;;;;47.90;20.77;;;;;;;14.07;100.00;101136.19;6219392;23;20321;-88
2022/06/26 03:03:02;;;;;;;40.88;20.13;;;;;;;14.08;100.00;101131.53;6246207;23;20000;-88
2022/06/26 03:05:29;;;;;;;48.97;22.08;;;;;;;14.03;100.00;101138.50;6246270;23;20000;-88
2022/06/26 03:07:57;;;;;;;49.13;21.70;;;;;;;14.02;100.00;101130.56;6219478;23;20486;-88
2022/06/26 03:10:27;;;;;;;45.93;22.20;;;;;;;13.98;100.00;101135.66;6219702;23;20004;-88
2022/06/26 03:12:53;;;;;;;45.42;21.83;;;;;;;13.96;100.00;101143.22;6194488;23;20015;-88
2022/06/26 03:15:19;;;;;;;45.33;21.35;;;;;;;13.93;100.00;101142.88;6219452;23;20338;-88
2022/06/26 03:17:45;;;;;;;44.22;21.20;;;;;;;13.91;100.00;101148.56;6246283;23;20010;-88
2022/06/26 03:20:17;;;;;;;53.73;22.53;;;;;;;13.89;100.00;101147.94;6246245;23;20010;-87
2022/06/26 03:22:53;;;;;;;;;;;;;;;;;;;;;
2022/06/26 03:25:19;;;;;;;47.78;20.88;;;;;;;13.88;100.00;101168.13;6246295;23;20086;-88
2022/06/26 03:27:44;;;;;;;44.17;19.20;;;;;;;13.81;100.00;101170.91;6219396;23;20091;-89
2022/06/26 03:30:12;;;;;;;47.50;19.90;;;;;;;13.79;100.00;101164.88;6247197;23;20047;-88
2022/06/26 03:32:37;;;;;;;42.87;18.37;;;;;;;13.74;100.00;101153.78;6219722;23;20017;-88
2022/06/26 03:35:11;;;;;;;39.00;17.40;;;;;;;13.72;100.00;101161.38;6219403;23;20008;-88
2022/06/26 03:37:44;;;;;;;41.30;18.90;;;;;;;13.68;100.00;101171.06;6246070;23;20406;-89
2022/06/26 03:40:13;;;;;;;42.80;18.67;;;;;;;13.65;100.00;101186.00;6220565;23;20412;-88
2022/06/26 03:42:39;;;;;;;43.72;17.65;;;;;;;13.62;100.00;101181.00;6219598;23;20019;-88
2022/06/26 03:45:08;;;;;;;39.75;17.75;;;;;;;13.61;100.00;101189.41;6219952;23;20008;-88
2022/06/26 03:47:37;;;;;;;38.80;17.02;;;;;;;13.58;100.00;101189.88;6246067;23;20035;-88
2022/06/26 03:50:06;;;;;;;39.97;16.73;;;;;;;13.58;100.00;101187.13;6246185;23;20004;-88
2022/06/26 03:52:35;;;;;;;36.50;16.60;;;;;;;13.57;100.00;101191.75;6219995;23;20012;-88
2022/06/26 03:55:06;;;;;;;36.15;15.88;;;;;;;13.56;100.00;101209.16;6219648;23;20004;-88
2022/06/26 03:57:36;;;;;;;43.80;16.65;;;;;;;13.53;100.00;101196.00;6220713;23;20291;-88
2022/06/26 04:00:03;;;;;;;33.42;15.98;;;;;;;13.48;100.00;101184.97;6245945;23;20418;-88
2022/06/26 04:02:28;;;;;;;35.43;16.70;;;;;;;13.49;100.00;101192.91;6246202;23;20004;-88
2022/06/26 04:04:54;;;;;;;37.70;15.15;;;;;;;13.50;100.00;101182.81;6220329;23;20012;-88
2022/06/26 04:07:23;;;;;;;39.03;15.30;;;;;;;13.49;100.00;101182.00;6220846;23;20004;-88
2022/06/26 04:09:48;;;;;;;37.60;14.73;;;;;;;13.46;100.00;101181.59;6220998;23;20008;-88
2022/06/26 04:12:14;;;;;;;42.17;16.07;;;;;;;13.45;100.00;101185.38;6222455;23;20012;-88
2022/06/26 04:14:39;;;;;;;35.37;14.10;;;;;;;13.44;100.00;101184.56;6221502;23;20032;-88
2022/06/26 04:17:05;;;;;;;33.83;13.93;;;;;;;13.42;100.00;101186.69;6248345;23;20265;-88
2022/06/26 04:19:30;;;;;;;36.67;15.10;;;;;;;13.43;100.00;101192.97;6220898;23;20008;-88
2022/06/26 04:21:56;;;;;;;34.75;13.60;;;;;;;13.43;100.00;101191.06;6221639;23;20311;-88
2022/06/26 04:24:21;;;;;;;32.53;14.23;;;;;;;13.43;100.00;101199.22;6221677;23;20387;-88
2022/06/26 04:26:49;;;;;;;29.47;13.47;;;;;;;13.41;100.00;101195.91;6221792;23;20427;-88
2022/06/26 04:29:14;;;;;;;32.88;13.73;;;;;;;13.43;100.00;101201.97;6221801;23;20083;-88
2022/06/26 04:31:40;;;;;;;33.60;14.00;;;;;;;13.49;100.00;101214.72;6221373;23;20370;-88
2022/06/26 04:34:09;;;;;;;36.33;13.73;;;;;;;13.49;100.00;101225.63;6221560;23;20004;-88
2022/06/26 04:36:35;;;;;;;37.20;14.60;;;;;;;13.58;100.00;101228.03;6221803;23;20036;-88
2022/06/26 04:39:00;;;;;;;36.73;14.33;;;;;;;13.62;100.00;101231.97;6248075;23;20007;-88
2022/06/26 04:41:31;;;;;;;40.07;15.30;;;;;;;13.64;100.00;101235.28;6221276;23;20012;-88
2022/06/26 04:43:57;;;;;;;32.22;14.48;;;;;;;13.66;100.00;101233.19;6221161;23;20079;-88
2022/06/26 04:46:25;;;;;;;32.95;14.50;;;;;;;13.72;100.00;101242.38;6220566;23;20090;-88
2022/06/26 04:48:51;;;;;;;35.70;14.17;;;;;;;13.73;100.00;101242.16;6221603;23;20001;-88
2022/06/26 04:51:16;;;;;;;32.97;14.98;;;;;;;13.78;100.00;101253.19;6221906;23;20042;-88
2022/06/26 04:53:42;;;;;;;38.90;15.97;;;;;;;13.81;100.00;101250.00;6196667;23;20079;-88
2022/06/26 04:56:07;;;;;;;32.30;15.13;;;;;;;13.84;100.00;101248.72;6195499;23;20016;-88
2022/06/26 04:58:38;;;;;;;32.87;14.23;;;;;;;13.84;100.00;101244.09;6220982;23;20008;-88
2022/06/26 05:01:04;;;;;;;34.13;14.27;;;;;;;13.90;100.00;101236.06;6221231;23;20278;-88
2022/06/26 05:03:32;;;;;;;37.10;14.40;;;;;;;13.90;100.00;101246.97;6220766;23;20008;-88
2022/06/26 05:05:58;;;;;;;37.78;14.30;;;;;;;13.92;100.00;101253.03;6220520;23;20434;-88
2022/06/26 05:08:24;;;;;;;33.57;13.40;;;;;;;13.92;100.00;101251.16;6247197;23;20020;-88
2022/06/26 05:10:49;;;;;;;33.88;13.52;;;;;;;13.90;100.00;101256.00;6220552;23;20035;-88
2022/06/26 05:13:15;;;;;;;31.73;13.50;;;;;;;13.87;100.00;101253.72;6219357;23;20012;-88
2022/06/26 05:15:43;;;;;;;31.80;12.43;;;;;;;13.87;100.00;101259.19;6246994;23;20012;-88
2022/06/26 05:18:13;;;;;;;32.20;13.50;;;;;;;13.88;100.00;101263.56;6221278;23;20091;-88
2022/06/26 05:20:39;;;;;;;31.85;13.00;;;;;;;13.86;100.00;101250.16;6171354;23;20073;-88
2022/06/26 05:23:09;;;;;;;30.80;12.83;;;;;;;13.89;100.00;101258.94;6220223;23;20091;-88
2022/06/26 05:25:34;;;;;;;36.25;13.45;;;;;;;13.92;100.00;101256.63;6247404;23;20011;-88
2022/06/26 05:28:06;;;;;;;31.17;13.27;;;;;;;13.95;100.00;101261.59;6220597;23;20004;-88
2022/06/26 05:30:35;;;;;;;31.88;13.13;;;;;;;13.99;100.00;101259.25;6220308;23;20058;-88
2022/06/26 05:33:03;;;;;;;34.25;12.10;;;;;;;14.09;100.00;101256.00;6221457;23;20322;-88
2022/06/26 05:35:29;;;;;;;33.70;12.38;;;;;;;14.09;100.00;101254.09;6220643;23;20018;-88
2022/06/26 05:37:57;;;;;;;35.53;13.20;;;;;;;14.04;100.00;101249.31;6247173;23;20011;-87
2022/06/26 05:40:23;;;;;;;29.25;11.90;;;;;;;14.09;100.00;101265.00;6247361;23;20000;-87
2022/06/26 05:42:51;;;;;;;27.95;11.48;;;;;;;14.14;100.00;101267.88;6247949;23;20008;-87
2022/06/26 05:45:17;;;;;;;30.35;12.18;;;;;;;14.24;100.00;101269.25;6220853;23;20004;-87
2022/06/26 05:47:42;;;;;;;29.70;11.83;;;;;;;14.25;100.00;101277.19;6220751;23;20019;-88
2022/06/26 05:50:11;;;;;;;25.30;10.63;;;;;;;14.36;100.00;101281.03;6220912;23;20063;-88
2022/06/26 05:52:39;;;;;;;23.85;10.68;;;;;;;14.46;100.00;101291.41;6220289;23;20004;-88
2022/06/26 05:55:05;;;;;;;20.52;9.98;;;;;;;14.58;100.00;101289.56;6220116;23;20058;-87
2022/06/26 05:57:31;;;;;;;26.90;11.02;;;;;;;14.73;100.00;101302.81;6247347;23;20008;-87
2022/06/26 05:59:59;;;;;;;24.13;10.50;;;;;;;14.79;100.00;101298.34;6221111;23;20047;-87
2022/06/26 06:02:27;;;;;;;21.95;9.85;;;;;;;14.83;100.00;101294.09;6220135;23;20091;-88
2022/06/26 06:04:52;;;;;;;22.43;9.43;;;;;;;14.97;100.00;101303.75;6247569;23;20066;-83
2022/06/26 06:07:18;;;;;;;22.17;9.63;;;;;;;15.07;100.00;101322.28;6220275;23;20012;-83
2022/06/26 06:09:44;;;;;;;17.43;8.30;;;;;;;15.19;100.00;101305.91;6195305;23;20097;-83
2022/06/26 06:12:09;;;;;;;17.43;8.70;;;;;;;15.37;100.00;101308.56;6219938;23;20091;-84
2022/06/26 06:14:35;;;;;;;21.20;8.17;;;;;;;15.56;100.00;101305.72;6247176;23;20219;-84
2022/06/26 06:17:35;;;;;;;21.33;8.80;;;;;;;15.68;100.00;101301.09;6195199;23;20103;-83
2022/06/26 06:19:48;;;;;;;18.13;7.72;;;;;;;15.71;100.00;101311.56;6245971;23;20415;-83
2022/06/26 06:22:14;;;;;;;17.00;7.85;;;;;;;15.67;100.00;101295.84;6220599;23;20012;-83
2022/06/26 06:24:39;;;;;;;14.17;7.27;;;;;;;15.77;100.00;101294.19;6219824;23;20342;-84
2022/06/26 06:27:05;;;;;;;17.85;8.07;;;;;;;15.86;100.00;101289.19;6220699;23;20004;-83
2022/06/26 06:29:30;;;;;;;17.30;8.30;;;;;;;16.02;100.00;101301.31;6220654;23;20019;-83
2022/06/26 06:31:56;;;;;;;13.20;7.40;;;;;;;16.17;100.00;101300.81;6194758;23;20012;-83
2022/06/26 06:34:24;;;;;;;15.82;7.53;;;;;;;16.24;100.00;101312.47;6221030;23;20010;-84
2022/06/26 06:36:49;;;;;;;13.57;7.10;;;;;;;16.25;100.00;101327.78;6221005;23;20326;-83
2022/06/26 06:39:17;;;;;;;13.32;6.82;;;;;;;16.29;100.00;101322.69;6219518;23;20001;-83
2022/06/26 06:41:42;;;;;;;13.33;6.10;;;;;;;16.33;100.00;101310.19;6220303;23;20103;-84
2022/06/26 06:44:08;;;;;;;16.50;6.68;;;;;;;16.41;100.00;101322.66;6247553;23;20450;-84
2022/06/26 06:46:33;;;;;;;12.30;6.20;;;;;;;16.49;100.00;101325.00;6246790;23;20016;-84
2022/06/26 06:48:59;;;;;;;10.57;6.27;;;;;;;16.51;100.00;101350.25;6219963;23;20445;-84
2022/06/26 06:51:24;;;;;;;12.30;6.25;;;;;;;16.52;100.00;101346.44;6194959;23;20380;-83
2022/06/26 06:53:49;;;;;;;13.77;6.77;;;;;;;16.52;100.00;101353.81;6220312;23;20369;-83
2022/06/26 06:56:15;;;;;;;15.13;7.23;;;;;;;16.58;100.00;101372.00;6247236;23;20086;-84
2022/06/26 06:58:41;;;;;;;12.38;6.85;;;;;;;16.70;100.00;101374.69;6219533;23;20015;-84
2022/06/26 07:01:06;;;;;;;15.30;6.57;;;;;;;16.89;100.00;101383.59;6194712;23;20042;-86
2022/06/26 07:03:32;;;;;;;12.53;6.93;;;;;;;17.12;100.00;101385.41;6219793;23;20004;-84
2022/06/26 07:05:57;;;;;;;13.85;7.07;;;;;;;17.17;97.22;101394.56;6194773;23;20068;-84
2022/06/26 07:08:23;;;;;;;12.50;6.50;;;;;;;17.17;97.78;101391.00;6246217;23;20366;-84
2022/06/26 07:10:48;;;;;;;13.67;7.20;;;;;;;17.16;96.93;101392.88;6246102;23;20008;-83
2022/06/26 07:13:16;;;;;;;10.80;6.38;;;;;;;17.18;95.84;101398.97;6219529;23;20008;-83
2022/06/26 07:15:42;;;;;;;10.17;6.07;;;;;;;17.14;96.54;101395.06;6194533;23;20012;-83
2022/06/26 07:18:10;;;;;;;11.20;6.40;;;;;;;17.11;96.06;101402.94;6246999;23;20055;-84
2022/06/26 07:20:35;;;;;;;11.75;5.93;;;;;;;17.11;95.88;101397.44;6220137;23;20119;-84
2022/06/26 07:23:01;;;;;;;12.90;6.00;;;;;;;17.21;96.13;101389.41;6247059;23;20391;-84
2022/06/26 07:25:27;;;;;;;11.10;5.63;;;;;;;17.37;94.72;101382.28;6219757;23;20004;-84
2022/06/26 07:27:52;;;;;;;9.03;6.10;;;;;;;17.49;92.85;101391.28;6246217;23;20001;-84
2022/06/26 07:30:19;;;;;;;8.80;6.17;;;;;;;17.50;92.00;101398.41;6219693;23;20365;-83
2022/06/26 07:32:44;;;;;;;8.32;6.00;;;;;;;17.59;92.55;101401.59;6219536;23;20032;-83
2022/06/26 07:35:13;;;;;;;10.57;6.17;;;;;;;17.56;91.02;101401.25;6219708;23;20008;-83
2022/06/26 07:37:39;;;;;;;7.78;5.80;;;;;;;17.46;90.58;101396.44;6219728;23;20022;-84
2022/06/26 07:40:08;;;;;;;9.07;5.53;;;;;;;17.48;92.62;101399.75;6248516;23;20407;-83
2022/06/26 07:42:34;;;;;;;8.75;6.18;;;;;;;17.57;92.03;101408.38;6222154;23;20032;-83
2022/06/26 07:44:59;;;;;;;7.85;5.32;;;;;;;17.50;90.11;101403.91;6222167;23;20411;-85
2022/06/26 07:47:25;;;;;;;6.83;5.37;;;;;;;17.26;89.96;101414.19;6221101;23;20012;-84
2022/06/26 07:49:50;;;;;;;11.10;5.57;;;;;;;17.27;91.56;101410.38;6221703;23;20011;-84
2022/06/26 07:52:16;;;;;;;9.43;5.77;;;;;;;17.35;91.48;101407.22;6221489;23;20095;-84
2022/06/26 07:54:41;;;;;;;11.55;5.75;;;;;;;17.32;90.60;101407.72;6195896;23;20015;-84
2022/06/26 07:57:07;;;;;;;7.50;5.37;;;;;;;17.28;90.60;101403.78;6221403;23;20382;-84
2022/06/26 07:59:33;;;;;;;9.80;6.03;;;;;;;17.33;90.22;101408.53;6222320;23;20004;-83
2022/06/26 08:01:58;;;;;;;8.50;5.78;;;;;;;17.45;90.48;101423.03;6247942;23;20035;-84
2022/06/26 08:04:24;;;;;;;12.18;5.53;;;;;;;17.52;90.88;101415.47;6248526;23;20414;-83
2022/06/26 08:06:52;;;;;;;8.87;5.03;;;;;;;17.60;88.50;101424.34;6221021;23;20000;-84
2022/06/26 08:09:17;;;;;;;8.55;5.53;;;;;;;17.62;89.67;101417.53;6247873;23;20047;-84
2022/06/26 08:11:46;;;;;;;8.50;5.37;;;;;;;17.76;88.55;101433.69;6196203;23;20015;-84
2022/06/26 08:14:13;;;;;;;9.52;5.65;;;;;;;17.66;89.09;101429.69;6222159;23;20414;-84
2022/06/26 08:16:39;;;;;;;9.00;5.23;;;;;;;17.76;90.56;101420.81;6196664;23;20019;-84
2022/06/26 08:19:04;;;;;;;6.53;5.22;;;;;;;17.83;88.86;101426.13;6222260;23;20008;-85
2022/06/26 08:24:17;;;;;;;8.00;5.28;;;;;;;17.54;88.01;101421.53;6248668;23;20019;-84
2022/06/26 08:26:42;;;;;;;6.78;5.20;;;;;;;17.50;88.96;101439.56;6221516;23;20015;-84
2022/06/26 08:29:08;;;;;;;12.73;5.40;;;;;;;17.49;88.72;101426.94;6221355;23;20397;-84
2022/06/26 08:31:33;;;;;;;5.87;5.27;;;;;;;17.66;88.54;101426.94;6221611;23;20478;-84
2022/06/26 08:33:59;;;;;;;6.87;4.60;;;;;;;17.69;88.26;101426.44;6220760;23;20326;-85
2022/06/26 08:36:25;;;;;;;6.80;4.65;;;;;;;17.68;87.77;101412.97;6220613;23;20015;-84
2022/06/26 08:38:50;;;;;;;7.25;4.88;;;;;;;17.95;89.13;101418.66;6220894;23;20004;-84
2022/06/26 08:41:17;;;;;;;12.30;4.87;;;;;;;18.30;87.93;101412.00;6220494;23;20031;-84
2022/06/26 08:43:44;;;;;;;7.85;4.80;;;;;;;18.36;85.78;101427.47;6220982;23;20070;-85
2022/06/26 08:46:09;;;;;;;8.47;4.80;;;;;;;18.34;85.06;101434.34;6220502;23;20024;-84
2022/06/26 08:48:43;;;;;;;11.27;4.70;;;;;;;18.35;86.89;101433.22;6247603;23;20152;-85
2022/06/26 08:51:10;;;;;;;7.00;4.50;;;;;;;18.31;83.49;101432.91;6220259;23;20016;-84
2022/06/26 08:53:38;;;;;;;6.33;4.30;;;;;;;18.27;83.79;101436.44;6221452;23;20015;-84
2022/06/26 08:56:04;;;;;;;7.28;4.50;;;;;;;18.14;82.37;101445.84;6220934;23;20000;-84
2022/06/26 08:58:30;;;;;;;7.40;5.03;;;;;;;17.94;83.85;101436.22;6220749;23;20146;-84
2022/06/26 09:00:58;;;;;;;6.07;4.60;;;;;;;18.03;84.33;101433.88;6247379;23;20035;-85
2022/06/26 09:03:27;;;;;;;5.20;4.70;;;;;;;18.05;84.18;101435.31;6247096;23;20266;-85
2022/06/26 09:05:52;;;;;;;10.00;4.60;;;;;;;17.95;84.20;101435.16;6220480;23;20008;-85
2022/06/26 09:08:20;;;;;;;8.47;4.57;;;;;;;18.04;84.47;101441.88;6220855;23;20034;-86
2022/06/26 09:10:47;;;;;;;4.55;3.80;;;;;;;17.98;82.02;101442.88;6248376;23;20066;-84
2022/06/26 09:13:13;;;;;;;5.22;3.42;;;;;;;17.98;80.84;101431.03;6220701;23;20086;-84
2022/06/26 09:15:40;;;;;;;6.77;3.37;;;;;;;18.06;82.19;101428.72;6247607;23;20058;-84
2022/06/26 09:18:07;;;;;;;6.28;3.38;;;;;;;18.24;81.24;101426.75;6220633;23;20373;-86
2022/06/26 09:20:51;;;;;;;4.00;3.60;;;;;;;18.48;82.09;101423.78;6220861;23;20004;-84
2022/06/26 09:23:16;;;;;;;6.70;3.67;;;;;;;18.81;81.19;101431.09;6221769;23;20008;-84
2022/06/26 09:25:44;;;;;;;8.90;3.90;;;;;;;19.02;80.12;101440.44;6246753;23;20475;-83
2022/06/26 09:28:14;;;;;;;8.63;4.05;;;;;;;18.98;80.01;101449.47;6220557;23;20015;-84
2022/06/26 09:31:00;;;;;;;6.28;3.80;;;;;;;19.03;83.45;101453.09;6220928;23;20008;-84
2022/06/26 09:33:33;;;;;;;4.57;3.50;;;;;;;19.08;80.13;101460.56;6220940;23;20015;-85
2022/06/26 09:36:00;;;;;;;6.73;2.93;;;;;;;18.92;78.33;101446.63;6220542;23;20062;-86
2022/06/26 09:38:33;;;;;;;6.05;3.22;;;;;;;18.70;80.20;101432.03;6220594;23;20015;-86
2022/06/26 09:41:06;;;;;;;6.65;3.20;;;;;;;18.83;78.86;101439.91;6221449;23;20019;-86
2022/06/26 09:43:47;;;;;;;8.20;3.40;;;;;;;18.92;77.83;101438.38;6221268;23;20042;-86
2022/06/26 09:46:18;;;;;;;5.65;3.08;;;;;;;19.01;78.88;101449.75;6220288;23;20023;-85
2022/06/26 09:48:46;;;;;;;11.87;3.77;;;;;;;18.90;78.62;101446.06;6195436;23;20103;-86
2022/06/26 09:51:15;;;;;;;4.95;3.50;;;;;;;19.05;78.95;101439.09;6195014;23;20043;-86
2022/06/26 09:53:45;;;;;;;6.57;3.00;;;;;;;19.23;77.00;101441.47;6221130;23;20049;-86
2022/06/26 09:56:17;;;;;;;5.93;3.10;;;;;;;19.22;76.01;101449.97;6195175;23;20012;-86
2022/06/26 09:58:51;;;;;;;4.32;3.15;;;;;;;19.32;75.77;101455.59;6196119;23;20014;-86
2022/06/26 10:07:22;;;;;;;;;;;;;;;;;;;;;
2022/06/26 10:09:51;;;;;;;5.35;3.33;;;;;;;20.12;76.38;101457.69;6246852;23;20393;-86
2022/06/26 10:12:23;;;;;;;4.53;3.10;;;;;;;20.45;73.20;101458.47;6219825;23;20520;-86
2022/06/26 10:14:57;;;;;;;5.70;3.07;;;;;;;20.72;73.20;101468.53;6195829;23;20431;-86
2022/06/26 10:18:18;;;;;;;7.57;2.85;;;;;;;21.16;77.05;101476.44;6219942;23;20008;-86
2022/06/26 10:21:14;;;;;;;8.32;3.25;;;;;;;21.00;73.33;101481.06;6215119;23;20008;-86
2022/06/26 10:24:05;;;;;;;5.82;3.50;;;;;;;21.41;69.80;101469.28;6220757;23;20030;-86
2022/06/26 10:27:11;;;;;;;7.25;3.50;;;;;;;22.20;72.93;101467.97;6221042;23;20047;-86
2022/06/26 10:29:48;;;;;;;4.80;2.93;;;;;;;22.52;63.69;101465.97;6242461;23;20414;-86
2022/06/26 10:32:23;;;;;;;5.53;3.00;;;;;;;22.49;66.74;101477.59;6218550;23;20000;-86
2022/06/26 10:35:07;;;;;;;6.68;2.80;;;;;;;22.48;65.85;101467.66;6220240;23;20012;-86
2022/06/26 10:38:16;;;;;;;6.50;3.20;;;;;;;23.07;71.27;101466.03;6220623;23;20015;-86
2022/06/26 10:43:49;;;;;;;4.67;3.43;;;;;;;23.17;65.94;101465.19;6246439;23;20027;-86
2022/06/26 10:46:24;;;;;;;5.20;3.50;;;;;;;23.51;61.75;101461.63;6218573;23;20069;-85
2022/06/26 10:49:07;;;;;;;;;;;;;;;;;;;;;
2022/06/26 10:51:59;;;;;;;6.60;3.70;;;;;;;24.26;63.82;101471.53;6222626;23;20079;-86
2022/06/26 10:55:25;;;;;;;;;;;;;;;;;;;;;
2022/06/26 10:57:53;;;;;;;5.40;3.07;;;;;;;24.84;54.06;101471.44;6236471;23;20520;-86
2022/06/26 11:00:25;;;;;;;4.93;2.72;;;;;;;24.65;53.75;101474.16;6219951;23;20012;-86
2022/06/26 11:02:50;;;;;;;4.70;2.65;;;;;;;24.76;53.08;101477.66;6219915;23;20012;-86
2022/06/26 11:05:21;;;;;;;4.87;2.73;;;;;;;24.86;52.90;101477.53;6246919;23;20102;-87
2022/06/26 11:07:56;;;;;;;4.18;2.67;;;;;;;24.43;54.67;101482.97;6196296;23;20013;-86
2022/06/26 11:10:52;;;;;;;9.52;2.20;;;;;;;24.53;54.00;101470.97;6246681;23;20087;-86
2022/06/26 11:13:10;;;;;;;6.38;2.80;;;;;;;25.11;52.20;101458.06;6241670;23;20008;-86
2022/06/26 11:15:44;;;;;;;7.03;2.57;;;;;;;25.42;51.31;101460.41;6220403;23;20018;-86
2022/06/26 11:18:13;;;;;;;2.83;2.17;;;;;;;25.82;50.67;101450.59;6246497;23;20071;-86
2022/06/26 11:21:10;;;;;;;6.97;2.90;;;;;;;26.05;53.00;101443.25;6219566;23;20078;-86
2022/06/26 11:23:38;;;;;;;11.05;3.00;;;;;;;25.75;48.17;101444.59;6199151;23;20481;-86
2022/06/26 11:26:11;;;;;;;5.30;2.70;;;;;;;25.26;49.48;101448.66;6219717;23;20012;-86
2022/06/26 11:28:48;;;;;;;6.50;2.60;;;;;;;24.55;50.65;101445.69;6220251;23;20000;-86
2022/06/26 11:31:23;;;;;;;8.52;2.97;;;;;;;24.03;52.27;101434.34;6246958;23;20010;-86
2022/06/26 11:33:59;;;;;;;7.38;2.58;;;;;;;23.69;51.10;101436.00;6218704;23;20024;-86
2022/06/26 11:36:27;;;;;;;6.32;2.50;;;;;;;23.50;50.78;101435.88;6219439;23;20012;-86
2022/06/26 11:38:59;;;;;;;7.43;2.50;;;;;;;22.68;53.45;101428.88;6220434;23;20050;-86
2022/06/26 11:41:25;;;;;;;5.47;2.40;;;;;;;22.63;54.66;101437.16;6219500;23;20058;-86